Time;durP1;ratioP1;P1;durP2;ratioP2;P2;SDS_P1;SDS_P2;PMS_P1;PMS_P2;Temp;Humidity;BMP_temperature;BMP_pressure;BME280_temperature;BME280_humidity;BME280_pressure;Samples;Min_cycle;Max_cycle;Signal;HPM_P1;HPM_P2
2022/05/10 00:00:27;;;;;;;13.38;7.72;;;;;;;;;;5066709;28;20036;-75
2022/05/10 00:02:55;;;;;;;17.65;7.82;;;;;;;;;;5047602;28;20408;-75
2022/05/10 00:05:26;;;;;;;16.02;7.82;;;;;;;;;;5066437;28;20377;-76
2022/05/10 00:07:52;;;;;;;13.55;7.72;;;;;;;;;;5046608;28;20051;-76
2022/05/10 00:10:18;;;;;;;15.38;7.82;;;;;;;;;;5030907;28;20036;-75
2022/05/10 00:12:44;;;;;;;12.52;8.43;;;;;;;;;;5048793;28;20431;-75
2022/05/10 00:15:11;;;;;;;15.50;8.35;;;;;;;;;;5031134;28;20404;-75
2022/05/10 00:17:39;;;;;;;18.33;9.30;;;;;;;;;;5048002;28;20059;-75
2022/05/10 00:20:07;;;;;;;19.63;9.65;;;;;;;;;;5046916;28;20060;-74
2022/05/10 00:22:33;;;;;;;19.40;8.65;;;;;;;;;;5066482;28;20052;-75
2022/05/10 00:24:59;;;;;;;15.30;8.25;;;;;;;;;;5064763;28;20036;-75
2022/05/10 00:27:25;;;;;;;12.43;7.53;;;;;;;;;;5048028;28;20113;-74
2022/05/10 00:29:52;;;;;;;14.27;8.57;;;;;;;;;;5048393;28;20047;-76
2022/05/10 00:32:18;;;;;;;17.13;9.13;;;;;;;;;;5030191;28;20052;-74
2022/05/10 00:34:44;;;;;;;17.60;9.27;;;;;;;;;;5049138;28;20048;-79
2022/05/10 00:37:11;;;;;;;14.23;8.93;;;;;;;;;;5046590;28;20048;-76
2022/05/10 00:39:37;;;;;;;17.15;9.23;;;;;;;;;;5047612;28;20049;-75
2022/05/10 00:42:06;;;;;;;16.35;9.82;;;;;;;;;;5045778;28;20082;-80
2022/05/10 00:44:39;;;;;;;16.60;9.60;;;;;;;;;;5047890;28;20068;-82
2022/05/10 00:47:26;;;;;;;13.70;8.63;;;;;;;;;;5047964;28;20044;-77
2022/05/10 00:49:55;;;;;;;15.02;8.32;;;;;;;;;;5046650;28;20049;-78
2022/05/10 00:52:21;;;;;;;17.30;8.88;;;;;;;;;;5048663;28;20053;-76
2022/05/10 00:54:54;;;;;;;14.88;9.27;;;;;;;;;;5045647;28;20040;-79
2022/05/10 00:57:26;;;;;;;18.35;9.18;;;;;;;;;;5047407;28;20075;-75
2022/05/10 01:00:09;;;;;;;17.15;9.82;;;;;;;;;;5047983;28;20515;-82
2022/05/10 01:02:43;;;;;;;18.85;8.95;;;;;;;;;;5046725;28;20048;-78
2022/05/10 01:05:38;;;;;;;15.65;9.15;;;;;;;;;;5048031;28;20048;-81
2022/05/10 01:08:04;;;;;;;15.85;9.25;;;;;;;;;;5046913;28;20140;-77
2022/05/10 01:10:40;;;;;;;16.67;9.20;;;;;;;;;;5051030;28;20471;-77
2022/05/10 01:13:15;;;;;;;15.10;8.38;;;;;;;;;;5067481;28;20496;-81
2022/05/10 01:15:44;;;;;;;17.05;9.00;;;;;;;;;;5068165;28;20449;-79
2022/05/10 01:18:10;;;;;;;15.18;8.80;;;;;;;;;;5051232;28;20056;-79
2022/05/10 01:20:45;;;;;;;17.00;9.55;;;;;;;;;;5067764;28;20079;-75
2022/05/10 01:23:30;;;;;;;16.13;8.73;;;;;;;;;;5069427;28;20056;-78
2022/05/10 01:26:02;;;;;;;17.88;10.05;;;;;;;;;;5068928;28;20446;-78
2022/05/10 01:28:31;;;;;;;20.55;10.52;;;;;;;;;;5066969;28;20408;-76
2022/05/10 01:30:59;;;;;;;13.95;9.25;;;;;;;;;;5051766;28;20135;-73
2022/05/10 01:33:31;;;;;;;19.27;9.88;;;;;;;;;;5041427;28;20040;-73
2022/05/10 01:36:16;;;;;;;16.67;9.80;;;;;;;;;;5078230;28;20110;-77
2022/05/10 01:38:56;;;;;;;17.02;9.77;;;;;;;;;;5079118;28;20096;-74
2022/05/10 01:41:27;;;;;;;16.90;9.75;;;;;;;;;;5051756;28;20492;-74
2022/05/10 01:44:03;;;;;;;16.25;9.98;;;;;;;;;;5038754;28;20128;-75
2022/05/10 01:46:30;;;;;;;16.42;9.85;;;;;;;;;;5047635;28;20098;-74
2022/05/10 01:49:07;;;;;;;17.58;9.98;;;;;;;;;;5014156;28;20037;-77
2022/05/10 01:51:44;;;;;;;17.10;10.27;;;;;;;;;;5030057;28;20048;-74
2022/05/10 01:54:36;;;;;;;19.00;10.63;;;;;;;;;;5029991;28;20518;-75
2022/05/10 01:57:03;;;;;;;22.88;11.02;;;;;;;;;;5053574;28;20050;-75
2022/05/10 01:59:30;;;;;;;18.58;9.80;;;;;;;;;;5048049;28;20091;-75
2022/05/10 02:01:57;;;;;;;19.83;10.68;;;;;;;;;;5067234;28;20045;-74
2022/05/10 02:04:26;;;;;;;16.85;9.85;;;;;;;;;;5067766;28;20058;-74
2022/05/10 02:06:55;;;;;;;18.27;9.75;;;;;;;;;;5049839;28;20079;-73
2022/05/10 02:09:34;;;;;;;17.25;10.25;;;;;;;;;;5050366;28;20055;-74
2022/05/10 02:12:14;;;;;;;20.42;9.55;;;;;;;;;;5032359;28;20083;-73
2022/05/10 02:14:44;;;;;;;15.65;9.93;;;;;;;;;;5068000;28;20162;-75
2022/05/10 02:17:21;;;;;;;22.15;10.30;;;12.90;99.90;;;;;;5047843;28;20147;-77
2022/05/10 02:19:50;;;;;;;24.00;10.05;;;;;;;;;;5066855;28;20052;-76
2022/05/10 02:22:24;;;;;;;18.77;9.98;;;;;;;;;;5056276;28;20041;-73
2022/05/10 02:24:59;;;;;;;21.25;10.75;;;;;;;;;;5029101;28;20041;-78
2022/05/10 02:27:33;;;;;;;22.40;10.40;;;;;;;;;;5047829;28;20124;-74
2022/05/10 02:29:59;;;;;;;24.08;9.63;;;;;;;;;;5047117;28;20132;-76
2022/05/10 02:35:14;;;;;;;20.38;10.20;;;;;;;;;;5049802;28;20074;-74
2022/05/10 02:37:40;;;;;;;19.80;10.05;;;;;;;;;;5066190;28;20842;-74
2022/05/10 02:40:07;;;;;;;15.93;9.48;;;;;;;;;;5049867;28;20496;-76
2022/05/10 02:42:34;;;;;;;20.10;9.55;;;;;;;;;;5066316;28;20114;-75
2022/05/10 02:45:02;;;;;;;19.80;10.00;;;;;;;;;;5049943;28;20041;-75
2022/05/10 02:47:30;;;;;;;21.77;9.25;;;;;;;;;;5065561;28;20045;-76
2022/05/10 02:49:56;;;;;;;15.43;9.35;;;;;;;;;;5049446;28;20075;-75
2022/05/10 02:52:22;;;;;;;17.33;8.85;;;;;;;;;;5049694;28;20044;-75
2022/05/10 02:54:54;;;;;;;18.52;9.80;;;;;;;;;;5048162;28;20040;-75
2022/05/10 02:57:20;;;;;;;15.98;9.70;;;;;;;;;;5067127;28;20049;-75
2022/05/10 02:59:46;;;;;;;19.48;9.90;;;;;;;;;;5047874;28;20049;-76
2022/05/10 03:02:23;;;;;;;21.23;9.43;;;;;;;;;;5067211;28;20040;-74
2022/05/10 03:04:53;;;;;;;21.95;9.85;;;;;;;;;;5051649;28;20464;-80
2022/05/10 03:07:19;;;;;;;25.55;9.93;;;;;;;;;;5048977;28;20036;-75
2022/05/10 03:09:45;;;;;;;14.73;9.32;;;;;;;;;;5049002;28;20048;-76
2022/05/10 03:12:11;;;;;;;14.63;9.15;;;;;;;;;;5065903;28;20040;-76
2022/05/10 03:14:37;;;;;;;15.25;9.35;;;;;;;;;;5049392;28;20037;-73
2022/05/10 03:17:04;;;;;;;16.10;9.07;;;;;;;;;;5031291;28;20044;-78
2022/05/10 03:19:31;;;;;;;14.20;9.07;;;;;;;;;;5048186;28;20038;-74
2022/05/10 03:21:57;;;;;;;19.75;8.90;;;;;;;;;;5044143;28;20128;-80
2022/05/10 03:24:23;;;;;;;18.02;9.48;;;;;;;;;;5045725;28;20052;-74
2022/05/10 03:26:52;;;;;;;18.67;9.18;;;13.60;99.90;;;;;;5045354;28;20084;-78
2022/05/10 03:29:18;;;;;;;18.23;9.70;;;;;;;;;;5045626;28;20044;-74
2022/05/10 03:31:44;;;;;;;20.27;10.18;;;;;;;;;;5046373;28;20047;-79
2022/05/10 03:36:56;;;;;;;17.17;9.25;;;;;;;;;;5044830;28;20095;-75
2022/05/10 03:39:22;;;;;;;17.95;10.10;;;;;;;;;;5044230;28;20048;-77
2022/05/10 03:41:48;;;;;;;16.25;9.73;;;;;;;;;;5046466;28;20076;-74
2022/05/10 03:44:14;;;;;;;15.02;9.40;;;;;;;;;;5045657;28;20044;-76
2022/05/10 03:46:40;;;;;;;20.60;10.05;;;;;;;;;;5043916;28;20045;-75
2022/05/10 03:49:06;;;;;;;17.23;9.65;;;;;;;;;;5028982;28;20037;-74
2022/05/10 03:51:32;;;;;;;15.00;9.07;;;;;;;;;;5043091;28;20049;-74
2022/05/10 03:53:59;;;;;;;16.90;8.75;;;;;;;;;;5047015;28;20049;-79
2022/05/10 03:56:25;;;;;;;19.95;10.27;;;;;;;;;;5044017;28;20095;-80
2022/05/10 03:58:51;;;;;;;14.98;9.50;;;;;;;;;;5046380;28;20041;-74
2022/05/10 04:01:20;;;;;;;16.90;9.60;;;;;;;;;;5045870;28;20114;-77
2022/05/10 04:03:47;;;;;;;14.07;9.90;;;;;;;;;;5045836;28;20063;-79
2022/05/10 04:06:13;;;;;;;13.32;9.82;;;;;;;;;;5046584;28;20037;-79
2022/05/10 04:08:39;;;;;;;15.50;9.73;;;;;;;;;;5044460;28;20374;-75
2022/05/10 04:11:06;;;;;;;17.92;9.48;;;;;;;;;;5029051;28;20354;-78
2022/05/10 04:13:33;;;;;;;14.95;9.18;;;;;;;;;;5045036;28;20107;-79
2022/05/10 04:15:59;;;;;;;18.65;10.43;;;;;;;;;;5052298;28;20056;-75
2022/05/10 04:18:26;;;;;;;15.57;9.82;;;;;;;;;;5055508;28;20060;-80
2022/05/10 04:20:52;;;;;;;15.77;9.68;;;;;;;;;;5053709;28;20370;-77
2022/05/10 04:23:18;;;;;;;14.15;9.65;;;;;;;;;;5064014;28;20060;-77
2022/05/10 04:25:45;;;;;;;18.75;10.05;;;;;;;;;;5043699;28;20139;-76
2022/05/10 04:28:11;;;;;;;17.95;9.95;;;;;;;;;;5045923;28;20052;-74
2022/05/10 04:30:37;;;;;;;19.95;10.07;;;;;;;;;;5026441;28;20044;-75
2022/05/10 04:33:03;;;;;;;14.80;9.27;;;;;;;;;;5028227;28;20041;-75
2022/05/10 04:35:29;;;;;;;17.25;9.35;;;;;;;;;;5026626;28;20094;-76
2022/05/10 04:37:55;;;;;;;18.48;10.45;;;;;;;;;;5027772;28;20045;-77
2022/05/10 04:43:06;;;;;;;19.17;9.95;;;;;;;;;;5068154;28;20166;-75
2022/05/10 04:45:33;;;;;;;20.52;10.27;;;;;;;;;;5051473;28;20734;-75
2022/05/10 04:47:59;;;;;;;18.08;10.13;;;;;;;;;;5050022;28;20115;-76
2022/05/10 04:50:25;;;;;;;18.83;10.38;;;;;;;;;;5069497;28;20051;-75
2022/05/10 04:52:51;;;;;;;21.35;10.27;;;;;;;;;;5050660;28;20052;-79
2022/05/10 04:55:20;;;;;;;19.70;9.90;;;;;;;;;;5050528;28;20575;-76
2022/05/10 04:57:46;;;;;;;17.75;9.52;;;;;;;;;;5068957;28;20118;-78
2022/05/10 05:00:13;;;;;;;13.38;9.68;;;;;;;;;;5050374;28;20036;-80
2022/05/10 05:02:39;;;;;;;16.40;9.43;;;;;;;;;;5069302;28;20044;-79
2022/05/10 05:05:06;;;;;;;14.48;9.30;;;;;;;;;;5049577;28;20048;-78
2022/05/10 05:07:33;;;;;;;18.52;10.38;;;;;;;;;;5051058;28;20079;-80
2022/05/10 05:09:59;;;;;;;17.95;10.48;;;;;;;;;;5067805;28;20115;-75
2022/05/10 05:12:25;;;;;;;14.85;9.70;;;;;;;;;;5067391;28;20113;-78
2022/05/10 05:14:51;;;;;;;20.17;10.60;;;;;;;;;;5066774;28;20047;-79
2022/05/10 05:17:17;;;;;;;18.65;10.38;;;;;;;;;;5032615;28;20094;-80
2022/05/10 05:19:43;;;;;;;17.35;10.15;;;;;;;;;;5068311;28;20037;-80
2022/05/10 05:22:09;;;;;;;20.10;11.25;;;;;;;;;;5044508;28;20056;-77
2022/05/10 05:24:35;;;;;;;17.80;10.93;;;;;;;;;;5068274;28;20066;-80
2022/05/10 05:27:01;;;;;;;19.30;11.82;;;;;;;;;;5062549;28;20155;-80
2022/05/10 05:29:27;;;;;;;13.93;10.48;;;;;;;;;;5063582;28;20127;-81
2022/05/10 05:31:54;;;;;;;25.55;12.43;;;;;;;;;;5059703;28;20043;-80
2022/05/10 05:34:20;;;;;;;18.00;11.45;;;;;;;;;;5048034;28;20159;-75
2022/05/10 05:37:32;;;;;;;21.85;11.77;;;;;;;;;;5050061;28;20052;-76
2022/05/10 05:39:32;;;;;;;17.98;11.82;;;;;;;;;;5066750;28;21551;-79
2022/05/10 05:41:58;;;;;;;18.00;11.43;;;;;;;;;;5068306;28;20041;-77
2022/05/10 05:44:24;;;;;;;20.98;11.07;;;;;;;;;;5066943;28;20048;-76
2022/05/10 05:46:51;;;;;;;30.35;11.85;;;;;;;;;;5049269;28;20052;-80
2022/05/10 05:49:17;;;;;;;16.80;11.32;;;;;;;;;;5049810;28;20114;-79
2022/05/10 05:51:47;;;;;;;18.63;10.88;;;;;;;;;;5067802;28;20107;-78
2022/05/10 05:54:13;;;;;;;24.10;11.80;;;;;;;;;;5068810;28;20139;-79
2022/05/10 05:56:39;;;;;;;19.10;11.55;;;;;;;;;;5067542;28;20737;-77
2022/05/10 05:59:05;;;;;;;24.50;11.93;;;;;;;;;;5032634;28;20089;-76
2022/05/10 06:01:31;;;;;;;17.70;11.90;;;;;;;;;;5058286;28;20052;-77
2022/05/10 06:03:58;;;;;;;21.20;11.65;;;;;;;;;;5046194;28;20029;-75
2022/05/10 06:06:25;;;;;;;23.35;12.63;;;;;;;;;;5058557;28;20105;-77
2022/05/10 06:08:51;;;;;;;18.80;12.20;;;;;;;;;;5058688;28;20051;-76
2022/05/10 06:11:17;;;;;;;25.25;12.02;;;;;;;;;;5042193;28;20052;-80
2022/05/10 06:13:43;;;;;;;22.27;11.73;;;;;;;;;;5044263;28;20060;-80
2022/05/10 06:16:09;;;;;;;17.25;11.60;;;;;;;;;;5039355;28;20107;-82
2022/05/10 06:18:36;;;;;;;25.95;11.60;;;;;;;;;;5036831;28;20048;-80
2022/05/10 06:21:02;;;;;;;20.38;11.35;;;;;;;;;;5036784;28;20045;-79
2022/05/10 06:23:28;;;;;;;26.48;12.82;;;;;;;;;;5058116;28;20441;-80
2022/05/10 06:25:55;;;;;;;26.10;10.90;;;;;;;;;;5062738;28;20455;-81
2022/05/10 06:28:21;;;;;;;17.63;11.88;;;;;;;;;;5042146;28;20893;-78
2022/05/10 06:30:47;;;;;;;22.15;11.63;;;;;;;;;;5037054;28;20045;-77
2022/05/10 06:33:15;;;;;;;20.38;10.68;;;;;;;;;;5059787;28;20093;-81
2022/05/10 06:35:43;;;;;;;24.88;12.05;;;;;;;;;;5061004;28;20116;-81
2022/05/10 06:38:27;;;;;;;21.55;11.73;;;;;;;;;;5061686;28;20048;-81
2022/05/10 06:40:53;;;;;;;18.38;11.30;;;;;;;;;;5060419;28;20091;-80
2022/05/10 06:43:22;;;;;;;18.60;11.52;;;;;;;;;;5043488;28;20040;-80
2022/05/10 06:45:49;;;;;;;20.55;12.20;;;;;;;;;;5043753;28;20091;-79
2022/05/10 06:48:16;;;;;;;18.58;10.40;;;;;;;;;;5042980;28;20231;-80
2022/05/10 06:50:42;;;;;;;21.48;10.18;;;;;;;;;;5024859;28;20068;-81
2022/05/10 06:53:09;;;;;;;16.15;9.60;;;;;;;;;;5058331;28;20044;-79
2022/05/10 06:55:36;;;;;;;13.48;9.35;;;;;;;;;;5044661;28;20040;-77
2022/05/10 06:58:03;;;;;;;16.45;10.23;;;;;;;;;;5059678;28;20049;-79
2022/05/10 07:00:29;;;;;;;16.20;9.77;;;;;;;;;;5071613;28;20495;-80
2022/05/10 07:02:55;;;;;;;15.95;8.73;;;;;;;;;;5064336;28;20562;-76
2022/05/10 07:05:22;;;;;;;15.60;8.25;;;;;;;;;;5060305;28;20427;-78
2022/05/10 07:07:54;;;;;;;15.50;8.50;;;;;;;;;;5061939;28;20047;-79
2022/05/10 07:10:20;;;;;;;13.43;8.25;;;;;;;;;;5041942;28;20128;-79
2022/05/10 07:12:46;;;;;;;17.02;7.50;;;;;;;;;;5059628;28;20580;-80
2022/05/10 07:15:18;;;;;;;13.32;6.68;;;;;;;;;;5058128;28;20051;-81
2022/05/10 07:17:44;;;;;;;11.18;7.05;;;;;;;;;;5025998;28;20127;-80
2022/05/10 07:20:12;;;;;;;16.98;7.40;;;;;;;;;;5059184;28;20041;-78
2022/05/10 07:22:38;;;;;;;10.68;6.55;;;;;;;;;;5042659;28;20071;-81
2022/05/10 07:25:05;;;;;;;13.18;6.70;;;;;;;;;;5058942;28;20079;-80
2022/05/10 07:27:31;;;;;;;13.40;6.68;;;;;;;;;;5058351;28;22097;-76
2022/05/10 07:29:57;;;;;;;11.57;6.55;;;;;;;;;;5059966;28;20048;-77
2022/05/10 07:32:25;;;;;;;11.88;5.95;;;;;;;;;;5059028;28;20075;-79
2022/05/10 07:34:51;;;;;;;5.65;5.05;;;;;;;;;;5060279;28;20052;-78
2022/05/10 07:37:17;;;;;;;7.63;5.03;;;;;;;;;;5058919;28;20573;-78
2022/05/10 07:39:43;;;;;;;9.40;5.63;;;;;;;;;;5059566;28;20036;-78
2022/05/10 07:42:09;;;;;;;9.80;5.85;;;;;;;;;;5058945;28;20032;-78
2022/05/10 07:44:36;;;;;;;10.30;5.38;;;;;;;;;;5060335;28;20092;-78
2022/05/10 07:47:03;;;;;;;6.68;4.82;;;;;;;;;;5031181;28;20142;-79
2022/05/10 07:49:29;;;;;;;7.90;4.40;;;;;;;;;;5058691;28;20115;-77
2022/05/10 07:51:55;;;;;;;7.70;3.97;;;;;;;;;;5042120;28;20036;-78
2022/05/10 07:54:21;;;;;;;12.55;5.28;;;;;;;;;;5059885;28;20577;-77
2022/05/10 07:56:47;;;;;;;14.82;5.63;;;;;;;;;;5026771;28;20118;-78
2022/05/10 07:59:15;;;;;;;7.80;4.53;;;;;;;;;;5058293;28;20044;-78
2022/05/10 08:01:41;;;;;;;12.13;5.35;;;;;;;;;;5060912;28;20555;-78
2022/05/10 08:04:08;;;;;;;11.80;5.70;;;;;;;;;;5059033;28;20036;-80
2022/05/10 08:06:34;;;;;;;17.27;5.68;;;;;;;;;;5024750;28;20135;-79
2022/05/10 08:09:00;;;;;;;11.18;6.65;;;;;;;;;;5060972;28;20057;-78
2022/05/10 08:11:26;;;;;;;16.38;5.85;;;;;;;;;;5058827;28;20044;-78
2022/05/10 08:13:53;;;;;;;11.55;5.15;;;;;;;;;;5038797;28;20041;-78
2022/05/10 08:16:19;;;;;;;11.90;5.45;;;;;;;;;;5061028;28;20080;-78
2022/05/10 08:18:48;;;;;;;8.15;5.10;;;;;;;;;;5064413;28;20040;-78
2022/05/10 08:21:14;;;;;;;10.13;4.47;;;;;;;;;;5059513;28;20503;-79
2022/05/10 08:23:41;;;;;;;17.63;4.53;;;;;;;;;;5059533;28;20496;-79
2022/05/10 08:26:08;;;;;;;14.38;4.60;;;;;;;;;;5042162;28;20114;-78
2022/05/10 08:28:35;;;;;;;7.28;4.47;;;;;;;;;;5060863;28;20048;-78
2022/05/10 08:31:03;;;;;;;10.20;4.60;;;;;;;;;;5063534;28;20127;-78
2022/05/10 08:33:31;;;;;;;13.20;4.60;;;;;;;;;;5044494;28;20504;-78
2022/05/10 08:35:58;;;;;;;9.20;4.90;;;;;;;;;;5062464;28;20040;-77
2022/05/10 08:38:25;;;;;;;10.50;5.13;;;;;;;;;;5061827;28;20201;-78
2022/05/10 08:41:10;;;;;;;11.52;4.40;;;;;;;;;;5063154;28;20060;-77
2022/05/10 08:43:39;;;;;;;8.95;4.15;;;;;;;;;;5063087;28;20155;-78
2022/05/10 08:46:06;;;;;;;14.27;4.30;;;;;;;;;;5043663;28;20138;-78
2022/05/10 08:48:33;;;;;;;7.70;3.80;;;;;;;;;;5063751;28;20155;-79
2022/05/10 08:51:00;;;;;;;9.00;3.90;;;;;;;;;;5058904;28;20500;-76
2022/05/10 08:53:26;;;;;;;7.68;3.65;;;;;;;;;;5064600;28;20044;-78
2022/05/10 08:56:30;;;;;;;9.02;4.32;;;21.30;99.90;;;;;;5044758;28;20083;-78
2022/05/10 08:59:02;;;;;;;9.88;4.20;;;;;;;;;;4960721;28;20047;-78
2022/05/10 09:01:31;;;;;;;10.23;4.07;;;;;;;;;;5043662;28;20075;-78
2022/05/10 09:04:06;;;;;;;8.93;4.25;;;;;;;;;;5062788;28;20044;-78
2022/05/10 09:06:47;;;;;;;10.77;4.00;;;;;;;;;;5062207;28;20127;-78
2022/05/10 09:09:24;;;;;;;6.10;3.70;;;;;;;;;;5060953;28;20052;-78
2022/05/10 09:11:53;;;;;;;10.15;4.38;;;;;;;;;;5041589;28;20041;-78
2022/05/10 09:14:24;;;;;;;10.30;3.95;;;;;;;;;;5062642;28;20037;-79
2022/05/10 09:16:50;;;;;;;7.75;3.28;;;;;;;;;;5063187;28;20134;-78
2022/05/10 09:19:17;;;;;;;8.35;3.90;;;;;;;;;;5047650;28;20105;-78
2022/05/10 09:21:48;;;;;;;5.45;3.40;;;;;;;;;;5066941;28;20041;-79
2022/05/10 09:24:26;;;;;;;8.20;3.95;;;;;;;;;;5049287;28;20110;-77
2022/05/10 09:26:56;;;;;;;9.82;3.80;;;;;;;;;;5066417;28;20769;-78
2022/05/10 09:29:28;;;;;;;15.50;4.13;;;;;;;;;;5068733;28;20049;-78
2022/05/10 09:34:47;;;;;;;6.90;3.50;;;;;;;;;;5067661;28;20841;-78
2022/05/10 09:37:16;;;;;;;12.63;3.92;;;;;;;;;;5069368;28;20053;-78
2022/05/10 09:39:47;;;;;;;8.25;4.30;;;;;;;;;;5040670;28;20051;-77
2022/05/10 09:42:25;;;;;;;8.38;3.60;;;;;;;;;;5042082;28;20098;-78
2022/05/10 09:44:58;;;;;;;6.85;3.88;;;;;;;;;;5071780;28;20404;-79
2022/05/10 09:47:24;;;;;;;;;;;;;;;;;;5066393;28;20522;-79
2022/05/10 09:49:51;;;;;;;10.70;3.75;;;;;;;;;;5047868;28;19935;-79
2022/05/10 09:52:19;;;;;;;8.25;3.67;;;;;;;;;;5066452;28;20054;-78
2022/05/10 09:54:47;;;;;;;12.88;3.85;;;;;;;;;;5068016;28;20057;-79
2022/05/10 09:57:27;;;;;;;7.57;3.60;;;;;;;;;;5066354;28;20101;-78
2022/05/10 09:59:54;;;;;;;10.52;3.55;;;;;;;;;;5065291;28;20041;-77
2022/05/10 10:02:27;;;;;;;12.05;4.45;;;;;;;;;;5063517;28;20628;-78
2022/05/10 10:04:53;;;;;;;;;;;;;;;;;;5062176;28;20055;-78
2022/05/10 10:07:25;;;;;;;8.60;4.10;;;;;;;;;;5061652;28;19928;-79
2022/05/10 10:09:56;;;;;;;7.50;3.80;;;;;;;;;;5041408;28;20125;-78
2022/05/10 10:12:31;;;;;;;6.68;4.18;;;;;;;;;;5027614;28;20377;-79
2022/05/10 10:14:58;;;;;;;10.15;4.25;;;;;;;;;;5062540;28;20051;-77
2022/05/10 10:17:24;;;;;;;9.40;4.88;;;;;;;;;;5061563;28;20048;-78
2022/05/10 10:19:57;;;;;;;13.00;4.78;;;;;;;;;;5043864;28;20134;-78
2022/05/10 10:22:27;;;;;;;8.20;4.30;;;;;;;;;;5060490;28;20420;-78
2022/05/10 10:25:13;;;;;;;11.65;4.97;;;;;;;;;;5061237;28;20045;-78
2022/05/10 10:27:42;;;;;;;8.13;4.70;;;;;;;;;;5061970;28;20102;-78
2022/05/10 10:30:23;;;;;;;7.43;4.47;;;;;;;;;;5059514;28;20032;-79
2022/05/10 10:32:52;;;;;;;8.05;4.63;;;;;;;;;;5059988;28;20033;-77
2022/05/10 10:35:31;;;;;;;8.13;4.90;;;;;;;;;;5060113;28;20463;-77
2022/05/10 10:38:00;;;;;;;11.10;4.95;;;;;;;;;;5061249;28;20045;-78
2022/05/10 10:40:31;;;;;;;7.72;4.65;;;;;;;;;;5058436;28;20046;-78
2022/05/10 10:42:57;;;;;;;13.88;5.28;;;;;;;;;;5060633;28;20119;-77
2022/05/10 10:45:44;;;;;;;9.48;4.53;;;;;;;;;;5061094;28;20128;-79
2022/05/10 10:48:18;;;;;;;9.13;4.80;;;;;;;;;;5061025;28;20477;-77
2022/05/10 10:50:44;;;;;;;9.38;4.63;;;;;;;;;;5043714;28;20090;-78
2022/05/10 10:53:11;;;;;;;8.80;5.30;;;;;;;;;;5061181;28;20036;-78
2022/05/10 10:55:49;;;;;;;13.32;6.30;;;;;;;;;;5061235;28;20051;-77
2022/05/10 10:58:27;;;;;;;9.25;5.30;;;;;;;;;;5060194;28;20083;-78
2022/05/10 11:00:54;;;;;;;6.30;5.00;;;;;;;;;;5058280;28;20067;-78
2022/05/10 11:03:31;;;;;;;6.90;4.90;;;;;;;;;;5061930;28;20466;-76
2022/05/10 11:05:57;;;;;;;15.65;5.50;;;;;;;;;;5056239;28;20149;-79
2022/05/10 11:08:39;;;;;;;8.70;5.35;;;;;;;;;;5060644;28;20087;-77
2022/05/10 11:11:17;;;;;;;13.52;5.60;;;;;;;;;;5058277;28;20036;-78
2022/05/10 11:14:01;;;;;;;11.57;5.72;;;;;;;;;;5057227;28;20044;-78
2022/05/10 11:16:46;;;;;;;17.60;5.35;;;;;;;;;;5058244;28;20130;-77
2022/05/10 11:19:21;;;;;;;16.05;5.50;;;;;;;;;;5058504;28;20048;-78
2022/05/10 11:22:00;;;;;;;16.88;6.20;;;;;;;;;;5059002;28;20036;-78
2022/05/10 11:24:26;;;;;;;14.43;5.85;;;;;;;;;;5060971;28;20091;-79
2022/05/10 11:26:52;;;;;;;13.77;6.80;;;;;;;;;;5059679;28;20041;-78
2022/05/10 11:29:21;;;;;;;13.05;6.88;;;;;;;;;;5062290;28;20049;-77
2022/05/10 11:32:06;;;;;;;12.30;6.60;;;;;;;;;;5057308;28;20055;-78
2022/05/10 11:34:41;;;;;;;8.45;6.93;;;;;;;;;;5060141;28;20045;-78
2022/05/10 11:37:10;;;;;;;16.50;7.03;;;;;;;;;;5061796;28;20676;-78
2022/05/10 11:39:45;;;;;;;19.05;7.03;;;;;;;;;;5059580;28;20123;-78
2022/05/10 11:42:20;;;;;;;12.55;7.15;;;;;;;;;;5065459;28;20064;-78
2022/05/10 11:44:55;;;;;;;11.52;6.45;;;;;;;;;;5044732;28;20082;-77
2022/05/10 11:47:37;;;;;;;10.43;6.22;;;;;;;;;;5065195;28;20060;-79
2022/05/10 11:50:21;;;;;;;10.07;5.60;;;;;;;;;;5047505;28;20037;-77
2022/05/10 11:53:06;;;;;;;9.68;4.80;;;;;;;;;;5050822;28;20048;-77
2022/05/10 11:55:53;;;;;;;9.65;4.00;;;;;;;;;;5062782;28;20112;-78
2022/05/10 11:58:20;;;;;;;21.10;3.67;;;;;;;;;;5055598;28;20060;-77
2022/05/10 12:00:50;;;;;;;8.45;3.30;;;;;;;;;;5044087;28;20052;-78
2022/05/10 12:03:35;;;;;;;8.55;3.47;;;;;;;;;;5061501;28;20123;-78
2022/05/10 12:06:19;;;;;;;10.48;3.35;;;;;;;;;;5038788;28;20047;-79
2022/05/10 12:08:46;;;;;;;8.15;3.00;;;;;;;;;;5060765;28;20075;-77
2022/05/10 12:11:34;;;;;;;8.93;3.95;;;;;;;;;;5041711;28;20119;-78
2022/05/10 12:22:50;;;;;;;9.60;4.20;;;;;;;;;;5067561;28;20065;-78
2022/05/10 12:25:37;;;;;;;11.52;4.60;;;;;;;;;;5076840;28;20048;-78
2022/05/10 12:28:03;;;;;;;8.20;3.97;;;;;;;;;;5071702;28;20397;-78
2022/05/10 12:30:31;;;;;;;12.82;5.85;;;;;;;;;;5072176;28;20032;-79
2022/05/10 12:32:58;;;;;;;6.57;4.95;;;;;;;;;;5055970;28;20045;-78
2022/05/10 12:35:32;;;;;;;9.70;5.03;;;;;;;;;;5061517;28;20040;-78
2022/05/10 12:37:59;;;;;;;;;;;23.40;99.90;;;;;;5062676;28;20056;-77
2022/05/10 12:40:32;;;;;;;18.88;5.95;;;;;;;;;;5062665;28;19931;-78
2022/05/10 12:43:16;;;;;;;25.27;7.28;;;;;;;;;;5065823;28;20037;-78
2022/05/10 12:45:45;;;;;;;11.65;6.25;;;;;;;;;;5062739;28;20040;-78
2022/05/10 12:48:27;;;;;;;11.20;6.63;;;;;;;;;;5066343;28;20106;-77
2022/05/10 12:50:56;;;;;;;11.10;5.40;;;;;;;;;;5031110;28;20063;-78
2022/05/10 12:53:25;;;;;;;12.05;6.35;;;;;;;;;;5064767;28;20044;-77
2022/05/10 12:56:04;;;;;;;15.35;5.72;;;;;;;;;;5065069;28;20046;-78
2022/05/10 12:58:34;;;;;;;11.95;6.50;;;;;;;;;;5064462;28;20059;-77
2022/05/10 13:01:01;;;;;;;13.45;6.32;;;;;;;;;;5065567;28;20033;-77
2022/05/10 13:03:35;;;;;;;8.05;5.93;;;;;;;;;;5049641;28;20040;-77
2022/05/10 13:06:01;;;;;;;;;;;;;;;;;;5069377;28;20504;-77
2022/05/10 13:08:50;;;;;;;13.50;5.25;;;;;;;;;;5069540;28;19932;-77
2022/05/10 13:11:17;;;;;;;8.40;4.45;;;;;;;;;;5050091;28;20369;-75
2022/05/10 13:13:45;;;;;;;9.88;4.55;;;;;;;;;;5050837;28;20503;-77
2022/05/10 13:16:17;;;;;;;28.70;5.63;;;;;;;;;;5050296;28;20139;-77
2022/05/10 13:18:43;;;;;;;9.32;4.95;;;;;;;;;;5048553;28;20048;-79
2022/05/10 13:21:09;;;;;;;14.23;4.55;;;;;;;;;;5050374;28;20044;-78
2022/05/10 13:23:36;;;;;;;13.38;3.80;;;;;;;;;;5049291;28;20053;-77
2022/05/10 13:26:08;;;;;;;10.55;3.67;;;;;;;;;;5068572;28;20513;-77
2022/05/10 13:28:35;;;;;;;13.73;3.30;;;;;;;;;;5066179;28;20055;-76
2022/05/10 13:31:02;;;;;;;6.70;2.22;;;;;;;;;;5068411;28;20041;-77
2022/05/10 13:33:35;;;;;;;12.18;2.50;;;;;;;;;;5066800;28;20155;-76
2022/05/10 13:36:01;;;;;;;;;;;;;;;;;;5034713;28;20127;-78
2022/05/10 13:38:33;;;;;;;16.88;2.00;;;;;;;;;;5066303;28;20031;-76
2022/05/10 13:41:02;;;;;;;6.97;1.50;;;;;;;;;;5068151;28;20124;-77
2022/05/10 13:43:28;;;;;;;8.57;1.50;;;;;;;;;;5035705;28;20037;-77
2022/05/10 13:45:56;;;;;;;8.93;2.28;;;;;;;;;;5069109;28;20190;-78
2022/05/10 13:48:27;;;;;;;13.88;2.83;;;;;;;;;;5068122;28;20055;-77
2022/05/10 13:50:56;;;;;;;10.35;2.60;;;;;;;;;;5048400;28;20044;-78
2022/05/10 13:53:31;;;;;;;4.75;2.00;;;;;;;;;;5070912;28;20163;-78
2022/05/10 13:55:59;;;;;;;5.97;2.30;;;;;;;;;;5048538;28;20037;-78
2022/05/10 13:58:30;;;;;;;11.95;2.50;;;;;;;;;;5083334;28;20041;-76
2022/05/10 14:00:56;;;;;;;6.60;1.35;;;;;;;;;;5067402;28;20051;-79
2022/05/10 14:03:22;;;;;;;8.40;1.42;;;;;;;;;;5048678;28;20086;-77
2022/05/10 14:05:49;;;;;;;3.17;1.00;;;;;;;;;;5063505;28;20044;-77
2022/05/10 14:08:18;;;;;;;6.20;1.40;;;;;;;;;;5047876;28;20051;-77
2022/05/10 14:10:56;;;;;;;9.70;1.23;;;;;;;;;;5062745;28;20492;-79
2022/05/10 14:13:22;;;;;;;9.20;1.20;;;;;;;;;;5052559;28;20063;-78
2022/05/10 14:15:49;;;;;;;7.28;0.90;;;;;;;;;;5059358;28;20366;-77
2022/05/10 14:18:15;;;;;;;2.67;1.00;;;;;;;;;;5036873;28;20048;-78
2022/05/10 14:20:46;;;;;;;6.32;0.90;;;;;;;;;;5064863;28;20269;-78
2022/05/10 14:23:14;;;;;;;3.58;0.90;;;;;;;;;;5042395;28;20067;-79
2022/05/10 14:25:49;;;;;;;7.00;0.90;;;;;;;;;;5058270;28;20463;-78
2022/05/10 14:28:32;;;;;;;8.32;1.17;;;;;;;;;;5062646;28;20521;-78
2022/05/10 14:31:08;;;;;;;5.47;1.10;;;;;;;;;;5057795;28;20040;-78
2022/05/10 14:33:39;;;;;;;1.85;0.80;;;;;;;;;;5055087;28;20131;-79
2022/05/10 14:36:09;;;;;;;4.18;1.00;;;;;;;;;;5060626;28;20036;-78
2022/05/10 14:38:38;;;;;;;10.00;1.75;;;;;;;;;;5057045;28;20060;-79
2022/05/10 14:41:05;;;;;;;7.05;1.50;;;;;;;;;;5059098;28;20118;-78
2022/05/10 14:43:36;;;;;;;6.05;1.95;;;;;;;;;;5061836;28;20088;-77
2022/05/10 14:46:22;;;;;;;4.78;2.28;;;;;;;;;;5063189;28;20365;-77
2022/05/10 14:48:55;;;;;;;7.10;1.88;;;;;;;;;;5058450;28;20040;-77
2022/05/10 14:51:39;;;;;;;9.73;2.50;;;;;;;;;;5047217;28;20044;-78
2022/05/10 14:54:07;;;;;;;14.15;2.22;;;;;;;;;;5028901;28;20055;-78
2022/05/10 14:56:42;;;;;;;8.48;2.33;;;;;;;;;;5059005;28;20029;-78
2022/05/10 14:59:14;;;;;;;14.13;1.88;;;;;;;;;;5057450;28;20060;-78
2022/05/10 15:01:40;;;;;;;15.30;2.10;;;;;;;;;;5061575;28;20396;-78
2022/05/10 15:04:08;;;;;;;7.95;2.20;;;;;;;;;;5065278;28;20085;-76
2022/05/10 15:06:36;;;;;;;6.00;2.13;;;;;;;;;;5064518;28;20188;-77